createdAt,value
2022-12-18T00:01:16.230Z,99321.81
2022-12-18T00:03:43.525Z,99330.63
2022-12-18T00:06:10.812Z,99328.69
2022-12-18T00:08:37.427Z,99327.63
2022-12-18T00:11:13.625Z,99338.09
2022-12-18T00:13:41.266Z,99326.66
2022-12-18T00:16:11.225Z,99333.00
2022-12-18T00:18:38.825Z,99345.09
2022-12-18T00:21:08.471Z,99344.78
2022-12-18T00:23:36.860Z,99358.25
2022-12-18T00:26:08.934Z,99354.72
2022-12-18T00:28:35.795Z,99359.81
2022-12-18T00:31:02.537Z,99365.16
2022-12-18T00:33:29.467Z,99363.25
2022-12-18T00:35:56.093Z,99367.69
2022-12-18T00:38:22.914Z,99379.12
2022-12-18T00:40:49.615Z,99384.22
2022-12-18T00:43:16.419Z,99382.09
2022-12-18T00:45:43.108Z,99384.22
2022-12-18T00:48:09.959Z,99380.31
2022-12-18T00:50:36.610Z,99377.16
2022-12-18T00:53:03.533Z,99390.50
2022-12-18T00:55:30.394Z,99381.94
2022-12-18T00:57:57.037Z,99390.97
2022-12-18T01:00:24.021Z,99401.03
2022-12-18T01:02:50.997Z,99404.00
2022-12-18T01:05:18.185Z,99398.06
2022-12-18T01:07:45.463Z,99400.19
2022-12-18T01:10:13.772Z,99399.97
2022-12-18T01:12:40.735Z,99397.06
2022-12-18T01:15:08.402Z,99396.78
2022-12-18T01:17:35.270Z,99392.94
2022-12-18T01:20:01.918Z,99393.84
2022-12-18T01:22:28.756Z,99390.53
2022-12-18T01:24:55.811Z,99389.56
2022-12-18T01:27:22.660Z,99392.56
2022-12-18T01:29:50.229Z,99391.84
2022-12-18T01:32:17.044Z,99400.66
2022-12-18T01:34:43.701Z,99400.91
2022-12-18T01:37:10.522Z,99404.75
2022-12-18T01:39:37.297Z,99407.88
2022-12-18T01:42:04.455Z,99408.44
2022-12-18T01:45:09.107Z,99417.13
2022-12-18T01:47:47.173Z,99427.28
2022-12-18T01:50:21.148Z,99424.03
2022-12-18T01:53:00.585Z,99422.97
2022-12-18T01:55:30.225Z,99420.94
2022-12-18T01:58:00.443Z,99428.03
2022-12-18T02:00:27.723Z,99413.44
2022-12-18T02:02:55.143Z,99421.13
2022-12-18T02:05:47.144Z,99419.88
2022-12-18T02:08:28.654Z,99422.56
2022-12-18T02:11:06.324Z,99415.50
2022-12-18T02:14:06.601Z,99432.41
2022-12-18T02:16:48.221Z,99436.63
2022-12-18T02:19:57.353Z,99440.72
2022-12-18T02:22:49.657Z,99444.22
2022-12-18T02:25:54.224Z,99453.31
2022-12-18T02:28:22.520Z,99452.41
2022-12-18T02:30:50.554Z,99458.66
2022-12-18T02:33:18.270Z,99459.94
2022-12-18T02:35:46.488Z,99465.78
2022-12-18T02:38:13.751Z,99474.72
2022-12-18T02:40:41.726Z,99476.09
2022-12-18T02:43:12.672Z,99474.91
2022-12-18T02:45:57.575Z,99475.00
2022-12-18T02:48:32.696Z,99474.16
2022-12-18T02:51:07.430Z,99478.56
2022-12-18T02:53:47.277Z,99480.56
2022-12-18T02:56:18.546Z,99486.88
2022-12-18T02:58:56.331Z,99494.38
2022-12-18T03:01:40.427Z,99497.75
2022-12-18T03:04:18.477Z,99503.44
2022-12-18T03:06:49.369Z,99497.75
2022-12-18T03:09:20.805Z,99495.97
2022-12-18T03:12:09.865Z,99501.84
2022-12-18T03:14:38.675Z,99513.53
2022-12-18T03:17:07.418Z,99503.81
2022-12-18T03:19:35.425Z,99503.72
2022-12-18T03:22:04.916Z,99506.41
2022-12-18T03:24:33.020Z,99501.47
2022-12-18T03:27:02.681Z,99518.50
2022-12-18T03:29:36.511Z,99522.28
2022-12-18T03:32:07.611Z,99520.75
2022-12-18T03:34:36.770Z,99526.69
2022-12-18T03:37:03.831Z,99528.22
2022-12-18T03:39:30.758Z,99524.62
2022-12-18T03:42:08.901Z,99534.03
2022-12-18T03:44:57.628Z,99534.09
2022-12-18T03:47:31.586Z,99539.66
2022-12-18T03:50:16.890Z,99543.72
2022-12-18T03:53:10.810Z,99548.31
2022-12-18T03:55:37.892Z,99545.06
2022-12-18T03:58:07.399Z,99537.16
2022-12-18T04:00:35.080Z,99539.91
2022-12-18T04:03:03.513Z,99543.31
2022-12-18T04:05:31.178Z,99545.66
2022-12-18T04:07:58.177Z,99545.03
2022-12-18T04:10:25.102Z,99558.59
2022-12-18T04:12:51.977Z,99562.31
2022-12-18T04:15:18.937Z,99566.84
2022-12-18T04:17:50.017Z,99563.66
2022-12-18T04:20:17.343Z,99565.59
2022-12-18T04:22:44.222Z,99570.19
2022-12-18T04:25:11.031Z,99571.78
2022-12-18T04:27:37.685Z,99569.88
2022-12-18T04:30:05.156Z,99572.28
2022-12-18T04:32:32.018Z,99574.84
2022-12-18T04:34:58.885Z,99574.69
2022-12-18T04:37:25.723Z,99583.69
2022-12-18T04:39:52.405Z,99577.34
2022-12-18T04:42:19.284Z,99582.91
2022-12-18T04:44:46.128Z,99593.03
2022-12-18T04:47:12.945Z,99590.88
2022-12-18T04:49:39.587Z,99590.06
2022-12-18T04:52:06.420Z,99583.47
2022-12-18T04:54:33.043Z,99587.25
2022-12-18T04:56:59.875Z,99582.13
2022-12-18T04:59:26.568Z,99580.47
2022-12-18T05:01:53.525Z,99583.63
2022-12-18T05:04:20.464Z,99593.19
2022-12-18T05:06:47.356Z,99594.22
2022-12-18T05:09:15.093Z,99589.66
2022-12-18T05:11:41.927Z,99596.75
2022-12-18T05:14:08.594Z,99594.38
2022-12-18T05:16:35.466Z,99600.28
2022-12-18T05:19:02.330Z,99605.22
2022-12-18T05:21:28.975Z,99610.56
2022-12-18T05:23:55.829Z,99612.72
2022-12-18T05:26:22.680Z,99610.84
2022-12-18T05:28:49.536Z,99620.75
2022-12-18T05:31:16.501Z,99625.16
2022-12-18T05:33:44.095Z,99626.72
2022-12-18T05:36:11.242Z,99634.00
2022-12-18T05:38:39.655Z,99629.38
2022-12-18T05:41:07.325Z,99639.81
2022-12-18T05:43:37.628Z,99638.16
2022-12-18T05:46:10.383Z,99634.59
2022-12-18T05:48:37.245Z,99645.38
2022-12-18T05:51:08.103Z,99641.28
2022-12-18T05:53:35.501Z,99646.19
2022-12-18T05:56:04.849Z,99655.16
2022-12-18T05:58:32.117Z,99658.63
2022-12-18T06:00:59.623Z,99667.53
2022-12-18T06:03:32.197Z,99675.41
2022-12-18T06:06:00.649Z,99664.47
2022-12-18T06:08:27.460Z,99678.31
2022-12-18T06:10:54.331Z,99682.16
2022-12-18T06:13:21.831Z,99687.78
2022-12-18T06:15:48.742Z,99693.22
2022-12-18T06:18:15.704Z,99687.03
2022-12-18T06:20:42.622Z,99693.63
2022-12-18T06:23:10.508Z,99702.31
2022-12-18T06:25:40.035Z,99696.87
2022-12-18T06:28:06.907Z,99697.38
2022-12-18T06:30:33.851Z,99700.34
2022-12-18T06:33:00.745Z,99698.50
2022-12-18T06:35:27.584Z,99705.47
2022-12-18T06:37:54.431Z,99698.44
2022-12-18T06:40:21.427Z,99692.56
2022-12-18T06:42:48.257Z,99695.63
2022-12-18T06:45:14.925Z,99708.31
2022-12-18T06:47:41.783Z,99704.50
2022-12-18T06:50:08.890Z,99704.88
2022-12-18T06:52:35.791Z,99717.97
2022-12-18T06:55:02.664Z,99724.59
2022-12-18T06:57:29.602Z,99726.00
2022-12-18T06:59:56.460Z,99736.47
2022-12-18T07:02:23.468Z,99731.84
2022-12-18T07:04:50.348Z,99742.53
2022-12-18T07:07:16.996Z,99743.03
2022-12-18T07:09:43.847Z,99748.63
2022-12-18T07:12:10.702Z,99749.47
2022-12-18T07:14:37.370Z,99747.50
2022-12-18T07:17:04.320Z,99760.59
2022-12-18T07:19:31.296Z,99758.28
2022-12-18T07:21:59.239Z,99766.78
2022-12-18T07:24:26.054Z,99774.38
2022-12-18T07:26:52.684Z,99772.00
2022-12-18T07:29:19.542Z,99787.41
2022-12-18T07:31:46.465Z,99783.09
2022-12-18T07:34:14.714Z,99790.72
2022-12-18T07:36:41.717Z,99800.12
2022-12-18T07:39:08.784Z,99804.78
2022-12-18T07:41:35.629Z,99803.84
2022-12-18T07:44:02.261Z,99813.31
2022-12-18T07:46:29.141Z,99808.38
2022-12-18T07:48:55.975Z,99814.94
2022-12-18T07:51:22.632Z,99822.81
2022-12-18T07:53:52.165Z,99815.78
2022-12-18T07:56:29.081Z,99819.69
2022-12-18T07:58:57.633Z,99825.37
2022-12-18T08:01:24.842Z,99823.50
2022-12-18T08:03:52.417Z,99829.78
2022-12-18T08:06:24.099Z,99827.84
2022-12-18T08:08:53.590Z,99832.34
2022-12-18T08:11:20.470Z,99827.25
2022-12-18T08:13:48.392Z,99829.75
2022-12-18T08:16:16.284Z,99834.28
2022-12-18T08:18:43.130Z,99837.56
2022-12-18T08:21:16.832Z,99833.87
2022-12-18T08:23:44.173Z,99819.47
2022-12-18T08:26:12.490Z,99828.75
2022-12-18T08:28:39.473Z,99824.13
2022-12-18T08:31:06.907Z,99831.50
2022-12-18T08:33:34.460Z,99832.59
2022-12-18T08:36:01.893Z,99838.41
2022-12-18T08:38:28.853Z,99835.38
2022-12-18T08:41:03.475Z,99837.22
2022-12-18T08:43:48.696Z,99836.62
2022-12-18T08:46:15.775Z,99828.97
2022-12-18T08:48:42.937Z,99824.97
2022-12-18T08:51:10.780Z,99821.41
2022-12-18T08:53:38.368Z,99831.41
2022-12-18T08:56:06.455Z,99833.41
2022-12-18T08:58:33.295Z,99834.00
2022-12-18T09:01:05.280Z,99824.97
2022-12-18T09:03:32.716Z,99825.50
2022-12-18T09:05:59.777Z,99826.94
2022-12-18T09:08:27.270Z,99819.06
2022-12-18T09:10:54.145Z,99823.22
2022-12-18T09:13:20.991Z,99829.66
2022-12-18T09:15:48.665Z,99829.00
2022-12-18T09:18:16.720Z,99833.37
2022-12-18T09:20:43.936Z,99835.06
2022-12-18T09:23:11.576Z,99836.19
2022-12-18T09:25:38.986Z,99846.09
2022-12-18T09:28:14.158Z,99837.12
2022-12-18T09:30:42.405Z,99846.44
2022-12-18T09:33:09.397Z,99837.84
2022-12-18T09:35:39.969Z,99844.03
2022-12-18T09:38:07.144Z,99843.56
2022-12-18T09:40:55.199Z,99851.00
2022-12-18T09:43:28.386Z,99848.78
2022-12-18T09:46:03.090Z,99849.13
2022-12-18T09:48:33.410Z,99840.75
2022-12-18T09:51:05.342Z,99841.63
2022-12-18T09:53:34.718Z,99842.28
2022-12-18T09:56:02.056Z,99840.06
2022-12-18T09:58:45.457Z,99845.38
2022-12-18T10:01:24.014Z,99836.38
2022-12-18T10:03:51.636Z,99848.59
2022-12-18T10:06:35.775Z,99845.75
2022-12-18T10:09:21.878Z,99845.47
2022-12-18T10:12:07.713Z,99852.00
2022-12-18T10:14:45.664Z,99841.50
2022-12-18T10:17:29.931Z,99839.59
2022-12-18T10:19:56.778Z,99833.44
2022-12-18T10:22:29.025Z,99835.97
2022-12-18T10:25:33.327Z,99832.66
2022-12-18T10:28:09.312Z,99831.50
2022-12-18T10:30:36.198Z,99829.06
2022-12-18T10:33:04.239Z,99828.22
2022-12-18T10:35:31.121Z,99828.94
2022-12-18T10:38:13.081Z,99826.19
2022-12-18T10:40:58.149Z,99816.66
2022-12-18T10:43:28.473Z,99833.69
2022-12-18T10:46:09.839Z,99840.00
2022-12-18T10:48:49.312Z,99843.47
2022-12-18T10:51:34.895Z,99834.16
2022-12-18T10:54:20.947Z,99833.25
2022-12-18T10:56:48.369Z,99830.81
2022-12-18T10:59:17.399Z,99838.00
2022-12-18T11:01:47.184Z,99832.63
2022-12-18T11:04:22.116Z,99822.81
2022-12-18T11:07:05.992Z,99820.25
2022-12-18T11:09:33.538Z,99811.69
2022-12-18T11:12:15.716Z,99809.00
2022-12-18T11:14:46.727Z,99803.28
2022-12-18T11:17:30.144Z,99800.41
2022-12-18T11:19:58.925Z,99805.16
2022-12-18T11:22:31.003Z,99796.31
2022-12-18T11:27:56.557Z,99799.34
2022-12-18T11:30:27.494Z,99794.72
2022-12-18T11:33:04.484Z,99789.91
2022-12-18T11:35:34.280Z,99790.91
2022-12-18T11:38:08.472Z,99791.56
2022-12-18T11:40:41.313Z,99797.94
2022-12-18T11:43:17.290Z,99802.69
2022-12-18T11:45:54.134Z,99803.13
2022-12-18T11:48:26.555Z,99806.09
2022-12-18T11:50:58.031Z,99811.00
2022-12-18T11:53:26.493Z,99818.94
2022-12-18T11:56:05.907Z,99815.56
2022-12-18T11:58:38.761Z,99815.00
2022-12-18T12:01:36.500Z,99813.56
2022-12-18T12:04:10.280Z,99810.91
2022-12-18T12:06:41.339Z,99810.84
2022-12-18T12:09:20.027Z,99801.19
2022-12-18T12:11:55.910Z,99800.56
2022-12-18T12:14:37.698Z,99806.34
2022-12-18T12:17:23.291Z,99803.19
2022-12-18T12:20:00.343Z,99800.63
2022-12-18T12:23:07.352Z,99802.19
2022-12-18T12:26:07.504Z,99805.22
2022-12-18T12:29:04.271Z,99798.47
2022-12-18T12:31:43.110Z,99809.84
2022-12-18T12:34:21.814Z,99805.81
2022-12-18T12:36:54.364Z,99796.13
2022-12-18T12:39:24.738Z,99793.94
2022-12-18T12:42:10.274Z,99796.00
2022-12-18T12:44:51.257Z,99801.88
2022-12-18T12:47:28.399Z,99806.75
2022-12-18T12:49:57.986Z,99806.62
2022-12-18T12:52:32.611Z,99810.59
2022-12-18T12:55:00.271Z,99821.44
2022-12-18T12:57:40.823Z,99817.75
2022-12-18T13:00:11.718Z,99821.25
2022-12-18T13:03:09.577Z,99811.16
2022-12-18T13:06:09.231Z,99806.75
2022-12-18T13:08:57.547Z,99820.28
2022-12-18T13:11:59.749Z,99804.88
2022-12-18T13:14:27.115Z,99817.41
2022-12-18T13:17:26.347Z,99812.53
2022-12-18T13:20:05.642Z,99820.22
2022-12-18T13:22:50.223Z,99814.47
2022-12-18T13:25:36.717Z,99822.56
2022-12-18T13:28:14.593Z,99817.28
2022-12-18T13:30:47.523Z,99837.34
2022-12-18T13:33:21.034Z,99828.97
2022-12-18T13:35:48.048Z,99824.81
2022-12-18T13:38:22.447Z,99832.41
2022-12-18T13:40:49.230Z,99843.47
2022-12-18T13:43:18.876Z,99849.53
2022-12-18T13:46:07.358Z,99848.78
2022-12-18T13:48:38.182Z,99846.28
2022-12-18T13:51:10.767Z,99843.66
2022-12-18T13:53:44.123Z,99841.19
2022-12-18T13:56:17.197Z,99838.50
2022-12-18T13:58:44.237Z,99844.22
2022-12-18T14:01:25.730Z,99850.63
2022-12-18T14:03:52.768Z,99857.53
2022-12-18T14:06:19.815Z,99857.50
2022-12-18T14:08:48.049Z,99860.09
2022-12-18T14:11:23.911Z,99860.97
2022-12-18T14:13:53.718Z,99863.53
2022-12-18T14:16:21.007Z,99860.94
2022-12-18T14:18:53.292Z,99866.00
2022-12-18T14:21:23.293Z,99872.47
2022-12-18T14:23:50.632Z,99883.94
2022-12-18T14:26:31.469Z,99882.28
2022-12-18T14:29:02.224Z,99881.50
2022-12-18T14:31:32.052Z,99885.78
2022-12-18T14:33:59.022Z,99876.28
2022-12-18T14:36:30.441Z,99878.75
2022-12-18T14:38:59.070Z,99887.28
2022-12-18T14:41:26.870Z,99885.53
2022-12-18T14:43:55.146Z,99886.41
2022-12-18T14:46:35.831Z,99900.25
2022-12-18T14:49:19.385Z,99903.41
2022-12-18T14:51:55.439Z,99910.88
2022-12-18T14:54:24.058Z,99907.75
2022-12-18T14:56:56.269Z,99899.47
2022-12-18T14:59:25.218Z,99909.25
2022-12-18T15:01:59.824Z,99908.19
2022-12-18T15:04:37.319Z,99905.69
2022-12-18T15:07:23.325Z,99905.22
2022-12-18T15:10:04.906Z,99916.06
2022-12-18T15:12:45.160Z,99927.03
2022-12-18T15:15:37.137Z,99913.81
2022-12-18T15:18:11.527Z,99930.84
2022-12-18T15:21:00.416Z,99937.72
2022-12-18T15:23:29.990Z,99935.31
2022-12-18T15:26:04.054Z,99939.53
2022-12-18T15:28:36.541Z,99943.88
2022-12-18T15:31:04.662Z,99942.88
2022-12-18T15:33:35.061Z,99945.09
2022-12-18T15:36:04.863Z,99945.78
2022-12-18T15:38:32.303Z,99953.31
2022-12-18T15:40:59.212Z,99952.63
2022-12-18T15:43:36.340Z,99952.00
2022-12-18T15:46:19.653Z,99951.25
2022-12-18T15:48:49.478Z,99960.66
2022-12-18T15:51:35.961Z,99965.91
2022-12-18T15:54:06.348Z,99964.25
2022-12-18T15:56:52.193Z,99960.88
2022-12-18T15:59:21.115Z,99963.34
2022-12-18T16:01:50.176Z,99963.25
2022-12-18T16:04:18.978Z,99959.00
2022-12-18T16:07:13.295Z,99960.81
2022-12-18T16:09:32.623Z,99962.56
2022-12-18T16:12:00.560Z,99959.31
2022-12-18T16:14:29.760Z,99965.94
2022-12-18T16:17:01.017Z,99969.47
2022-12-18T16:19:28.810Z,99981.22
2022-12-18T16:21:57.334Z,99975.22
2022-12-18T16:24:29.858Z,99977.81
2022-12-18T16:26:59.904Z,99982.88
2022-12-18T16:29:28.748Z,99982.78
2022-12-18T16:31:56.558Z,99985.56
2022-12-18T16:34:29.564Z,99994.81
2022-12-18T16:37:04.814Z,99996.00
2022-12-18T16:39:34.250Z,100007.16
2022-12-18T16:42:05.648Z,100001.72
2022-12-18T16:44:32.690Z,99994.81
2022-12-18T16:47:03.145Z,99983.72
2022-12-18T16:49:30.738Z,99976.34
2022-12-18T16:51:57.973Z,99976.72
2022-12-18T16:54:25.221Z,99976.63
2022-12-18T16:56:52.552Z,99979.28
2022-12-18T16:59:19.898Z,99973.28
2022-12-18T17:01:47.466Z,99980.56
2022-12-18T17:04:15.390Z,99986.09
2022-12-18T17:06:44.195Z,99993.84
2022-12-18T17:09:16.223Z,99994.53
2022-12-18T17:11:43.599Z,99992.00
2022-12-18T17:14:21.574Z,99992.09
2022-12-18T17:16:57.783Z,99998.94
2022-12-18T17:19:35.455Z,99996.13
2022-12-18T17:22:02.694Z,100000.22
2022-12-18T17:24:34.566Z,100002.44
2022-12-18T17:27:02.517Z,99996.03
2022-12-18T17:29:29.427Z,100007.00
2022-12-18T17:31:56.306Z,100012.25
2022-12-18T17:34:24.644Z,100009.44
2022-12-18T17:36:51.515Z,100017.97
2022-12-18T17:39:20.672Z,100008.31
2022-12-18T17:41:48.900Z,100004.78
2022-12-18T17:44:16.728Z,100005.53
2022-12-18T17:46:44.019Z,100015.81
2022-12-18T17:49:11.528Z,100008.19
2022-12-18T17:51:38.390Z,100009.69
2022-12-18T17:54:05.630Z,100011.38
2022-12-18T17:56:33.094Z,100012.09
2022-12-18T17:59:00.282Z,100010.66
2022-12-18T18:01:27.809Z,100014.88
2022-12-18T18:03:58.112Z,100016.00
2022-12-18T18:06:25.064Z,100012.59
2022-12-18T18:08:52.130Z,100001.72
2022-12-18T18:11:39.403Z,100006.19
2022-12-18T18:14:14.269Z,100009.09
2022-12-18T18:16:44.034Z,100002.25
2022-12-18T18:19:16.604Z,99998.19
2022-12-18T18:21:45.466Z,100012.94
2022-12-18T18:24:15.769Z,100012.75
2022-12-18T18:26:42.702Z,100017.31
2022-12-18T18:29:11.830Z,100008.56
2022-12-18T18:31:41.004Z,100007.00
2022-12-18T18:34:13.341Z,100020.16
2022-12-18T18:36:40.177Z,100022.75
2022-12-18T18:39:06.810Z,100024.53
2022-12-18T18:41:35.217Z,100028.69
2022-12-18T18:44:02.075Z,100027.69
2022-12-18T18:46:28.749Z,100033.09
2022-12-18T18:48:56.031Z,100032.09
2022-12-18T18:51:23.367Z,100025.19
2022-12-18T18:53:51.906Z,100037.81
2022-12-18T18:59:08.340Z,100034.56
2022-12-18T19:01:35.421Z,100032.50
2022-12-18T19:04:02.466Z,100036.75
2022-12-18T19:06:29.913Z,100027.88
2022-12-18T19:08:58.732Z,100040.91
2022-12-18T19:11:45.529Z,100040.66
2022-12-18T19:14:14.980Z,100044.03
2022-12-18T19:16:43.266Z,100041.38
2022-12-18T19:19:10.271Z,100037.53
2022-12-18T19:21:38.344Z,100042.72
2022-12-18T19:24:06.153Z,100041.53
2022-12-18T19:26:33.075Z,100046.28
2022-12-18T19:29:07.049Z,100054.09
2022-12-18T19:31:36.433Z,100062.22
2022-12-18T19:34:05.614Z,100063.66
2022-12-18T19:36:33.148Z,100055.00
2022-12-18T19:39:01.865Z,100052.69
2022-12-18T19:41:31.255Z,100062.94
2022-12-18T19:44:00.217Z,100070.13
2022-12-18T19:46:29.277Z,100068.53
2022-12-18T19:48:56.117Z,100070.31
2022-12-18T19:51:24.192Z,100076.91
2022-12-18T19:53:56.414Z,100071.84
2022-12-18T19:56:26.976Z,100071.53
2022-12-18T19:58:54.631Z,100076.72
2022-12-18T20:01:23.100Z,100080.00
2022-12-18T20:03:52.322Z,100077.25
2022-12-18T20:06:25.788Z,100075.81
2022-12-18T20:08:58.339Z,100088.78
2022-12-18T20:11:29.503Z,100089.81
2022-12-18T20:13:57.085Z,100084.37
2022-12-18T20:16:24.065Z,100081.16
2022-12-18T20:18:51.424Z,100081.13
2022-12-18T20:21:19.267Z,100083.34
2022-12-18T20:23:46.237Z,100092.16
2022-12-18T20:26:13.185Z,100080.44
2022-12-18T20:28:40.636Z,100083.50
2022-12-18T20:31:13.508Z,100086.72
2022-12-18T20:33:41.433Z,100086.16
2022-12-18T20:36:11.396Z,100082.53
2022-12-18T20:38:39.308Z,100086.12
2022-12-18T20:41:19.003Z,100087.56
2022-12-18T20:43:46.094Z,100088.25
2022-12-18T20:46:14.471Z,100084.47
2022-12-18T20:48:42.275Z,100083.78
2022-12-18T20:51:11.837Z,100081.03
2022-12-18T20:53:40.400Z,100083.03
2022-12-18T20:56:17.739Z,100082.47
2022-12-18T20:58:49.589Z,100087.66
2022-12-18T21:01:19.259Z,100080.87
2022-12-18T21:03:46.858Z,100079.66
2022-12-18T21:06:15.549Z,100091.72
2022-12-18T21:08:42.600Z,100095.63
2022-12-18T21:11:54.139Z,100097.06
2022-12-18T21:14:23.794Z,100111.94
2022-12-18T21:16:51.396Z,100111.97
2022-12-18T21:19:20.641Z,100107.66
2022-12-18T21:21:47.596Z,100109.25
2022-12-18T21:24:14.549Z,100099.38
2022-12-18T21:26:45.912Z,100101.97
2022-12-18T21:29:20.637Z,100103.66
2022-12-18T21:31:47.647Z,100089.00
2022-12-18T21:34:20.377Z,100091.16
2022-12-18T21:36:47.849Z,100084.06
2022-12-18T21:39:16.047Z,100084.06
2022-12-18T21:42:01.695Z,100075.19
2022-12-18T21:44:29.046Z,100067.72
2022-12-18T21:47:00.613Z,100068.19
2022-12-18T21:49:30.810Z,100059.88
2022-12-18T21:51:59.033Z,100058.63
2022-12-18T21:54:27.144Z,100060.16
2022-12-18T21:56:56.385Z,100062.12
2022-12-18T21:59:28.068Z,100054.72
2022-12-18T22:01:57.617Z,100068.00
2022-12-18T22:04:25.427Z,100065.22
2022-12-18T22:06:52.753Z,100061.06
2022-12-18T22:09:22.094Z,100059.22
2022-12-18T22:11:50.007Z,100057.56
2022-12-18T22:14:17.384Z,100059.94
2022-12-18T22:16:44.233Z,100061.84
2022-12-18T22:19:12.652Z,100058.34
2022-12-18T22:21:45.498Z,100059.50
2022-12-18T22:24:15.972Z,100055.81
2022-12-18T22:26:43.129Z,100062.06
2022-12-18T22:29:36.715Z,100065.34
2022-12-18T22:32:05.063Z,100066.09
2022-12-18T22:34:36.491Z,100069.75
2022-12-18T22:37:03.540Z,100074.94
2022-12-18T22:39:31.232Z,100080.84
2022-12-18T22:41:58.949Z,100069.59
2022-12-18T22:44:25.864Z,100075.63
2022-12-18T22:47:05.575Z,100079.69
2022-12-18T22:49:35.068Z,100084.53
2022-12-18T22:52:03.063Z,100074.41
2022-12-18T22:54:30.014Z,100085.13
2022-12-18T22:56:57.313Z,100090.03
2022-12-18T22:59:24.487Z,100092.41
2022-12-18T23:01:52.465Z,100085.03
2022-12-18T23:04:23.943Z,100091.25
2022-12-18T23:06:52.975Z,100085.94
2022-12-18T23:09:20.531Z,100085.94
2022-12-18T23:11:48.000Z,100092.63
2022-12-18T23:14:14.943Z,100085.56
2022-12-18T23:16:41.891Z,100086.75
2022-12-18T23:19:10.438Z,100091.37
2022-12-18T23:21:37.331Z,100087.38
2022-12-18T23:24:04.489Z,100091.63
2022-12-18T23:26:31.874Z,100087.94
2022-12-18T23:28:58.736Z,100089.56
2022-12-18T23:31:28.532Z,100085.81
2022-12-18T23:33:56.988Z,100082.03
2022-12-18T23:36:24.721Z,100087.00
2022-12-18T23:38:57.032Z,100071.09
2022-12-18T23:41:26.726Z,100070.59
2022-12-18T23:43:54.344Z,100067.00
2022-12-18T23:46:24.296Z,100072.47
2022-12-18T23:48:51.664Z,100077.84
2022-12-18T23:51:20.480Z,100079.62
2022-12-18T23:53:47.372Z,100078.94
2022-12-18T23:56:14.816Z,100074.03
2022-12-18T23:58:42.656Z,100078.59
